Aérodrome :
LOGIN :

S'inscrire | Disclaimer

   EN    FR    IT 

 










Légende :    VFR   VFR Marginal   IFR   IFR Intensif   IFR Très Intensif
Visi : 
Plafond : 
>= 8 km
>= 3000ft
5 à 8 km
1000 à 3000 ft
1500m à 5 km
500 à 1000 ft
800 à 1500m
200 à 500 ft
< 800m
< 200 ft
Symboles :   Orages  Brouillard  Fortes neiges  Fortes précipitations  Vent > 20 kt
SIGMETs :   Divers  Orages  Givrage  Turbulence  Onde Orograph.  Cendres Volcan.







- Altitude de l'aérodrome : 1649 ft
- Code IATA : HHN


EDFH - Frankfurt-Hahn Rhineland-Palatinate

METARs EXPIRÉS :
  • 241420Z 25012KT 210V290 CAVOK 22/09 Q1017
  • 241350Z 24015KT CAVOK 22/09 Q1017
  • 241320Z 25012G26KT 9999 FEW045 22/09 Q1017
  • 241250Z 25013KT 9999 FEW045 21/09 Q1018
  • 241220Z 26013KT 9999 FEW040 21/09 Q1018
  • 241150Z 25015G27KT 220V280 9999 FEW042 20/09 Q1018

TAF TAF EDFH
Valide du 24 à 12h jusqu'au 25 à 12h UTC


241100Z 2412/2512 26012KT 9999 SCT035
TEMPO 2412/2416 26015G25KT
BECMG 2418/2420 27006KT
BECMG 2506/2509 25012KT
TEMPO 2510/2512 26015G25KT
Pas de NOTAMs connus pour ce terrain.



MET'MAP, la Météo Aéronautique d'un coup d'oeil ! - Copyright ORBIFLY Décembre 2007 - Disclaimer

ORBIFLY MET'MAP TEAM :

Programmation & Développement : Alexandra Zaïnal
Conception & Développement : Baudouin d'Aumeries
Co-Programmation & Développement : Marc-Olivier Méhu
Soutien technique & logistique : Manuel Goepfert

Contact : metmap@orbifly.com




SOURCES & CREDITS :

   NOAA